Time;durP1;ratioP1;P1;durP2;ratioP2;P2;SDS_P1;SDS_P2;PMS_P1;PMS_P2;Temp;Humidity;BMP_temperature;BMP_pressure;BME280_temperature;BME280_humidity;BME280_pressure;Samples;Min_cycle;Max_cycle;Signal;HPM_P1;HPM_P2
2022/04/04 00:00:43;;;;;;;34.10;19.92;;;17.60;49.00;;;;;;4951282;28;93690;-72
2022/04/04 00:03:09;;;;;;;32.60;20.13;;;17.50;48.90;;;;;;4952409;28;93373;-72
2022/04/04 00:05:36;;;;;;;32.83;19.67;;;17.50;48.90;;;;;;4952448;28;92504;-72
2022/04/04 00:08:02;;;;;;;31.38;18.92;;;17.50;48.90;;;;;;4953379;28;92899;-72
2022/04/04 00:10:28;;;;;;;33.85;18.77;;;17.50;48.90;;;;;;4951470;28;96906;-72
2022/04/04 00:12:54;;;;;;;32.95;19.13;;;17.50;48.90;;;;;;4952529;28;96427;-73
2022/04/04 00:15:20;;;;;;;31.00;18.70;;;17.50;49.00;;;;;;4952625;28;92602;-72
2022/04/04 00:17:46;;;;;;;30.77;19.48;;;17.50;48.80;;;;;;4952358;28;92755;-72
2022/04/04 00:20:12;;;;;;;32.55;18.67;;;17.50;48.90;;;;;;4952532;28;92732;-72
2022/04/04 00:22:38;;;;;;;29.58;18.50;;;17.50;48.90;;;;;;4952026;28;93986;-72
2022/04/04 00:25:04;;;;;;;30.38;17.33;;;17.50;48.80;;;;;;4953170;28;92596;-73
2022/04/04 00:27:31;;;;;;;30.08;18.15;;;17.50;48.90;;;;;;4953098;28;91820;-72
2022/04/04 00:29:58;;;;;;;30.23;17.95;;;17.40;48.70;;;;;;4955460;28;94307;-72
2022/04/04 00:32:23;;;;;;;25.10;16.20;;;17.40;48.70;;;;;;4958032;28;94053;-72
2022/04/04 00:34:49;;;;;;;27.38;17.15;;;17.40;48.80;;;;;;4951229;28;95443;-72
2022/04/04 00:37:15;;;;;;;28.33;17.52;;;17.40;48.70;;;;;;4953155;28;98419;-73
2022/04/04 00:39:41;;;;;;;27.95;17.33;;;17.40;48.80;;;;;;4952098;28;93156;-73
2022/04/04 00:42:07;;;;;;;24.25;16.67;;;17.40;48.70;;;;;;4952538;28;92944;-72
2022/04/04 00:44:33;;;;;;;28.75;17.00;;;17.40;48.70;;;;;;4952844;28;92762;-72
2022/04/04 00:46:59;;;;;;;25.42;15.68;;;17.40;48.70;;;;;;4951826;28;92418;-72
2022/04/04 00:49:25;;;;;;;27.73;16.58;;;17.40;48.70;;;;;;4952954;28;93108;-72
2022/04/04 00:51:51;;;;;;;24.95;16.08;;;17.30;48.60;;;;;;4952429;28;95482;-72
2022/04/04 00:54:17;;;;;;;24.95;16.10;;;17.30;48.70;;;;;;4952767;28;92430;-73
2022/04/04 00:56:43;;;;;;;25.90;15.63;;;17.30;48.70;;;;;;4952667;28;93076;-72
2022/04/04 00:59:14;;;;;;;26.05;16.33;;;17.30;48.60;;;;;;4950823;28;96508;-72
2022/04/04 01:01:40;;;;;;;23.95;14.77;;;17.30;48.60;;;;;;4952014;28;97391;-73
2022/04/04 01:04:08;;;;;;;25.17;14.82;;;17.30;48.60;;;;;;4951607;28;92772;-73
2022/04/04 01:06:35;;;;;;;23.02;14.82;;;17.30;48.60;;;;;;4951410;28;93061;-72
2022/04/04 01:09:02;;;;;;;23.67;14.38;;;17.30;48.50;;;;;;4952740;28;93824;-72
2022/04/04 01:11:29;;;;;;;23.23;15.02;;;17.30;48.50;;;;;;4951876;28;93174;-72
2022/04/04 01:13:55;;;;;;;23.65;14.93;;;17.30;48.50;;;;;;4951796;28;92822;-73
2022/04/04 01:16:20;;;;;;;22.52;14.20;;;17.30;48.50;;;;;;4952438;28;92148;-73
2022/04/04 01:18:46;;;;;;;22.88;14.07;;;17.30;48.50;;;;;;4951690;28;93617;-72
2022/04/04 01:21:12;;;;;;;23.25;14.07;;;17.20;48.50;;;;;;4951760;28;93118;-70
2022/04/04 01:23:41;;;;;;;21.88;13.88;;;17.20;48.50;;;;;;4950431;28;95426;-73
2022/04/04 01:26:09;;;;;;;23.63;14.63;;;17.20;48.50;;;;;;4952731;28;92991;-72
2022/04/04 01:28:35;;;;;;;22.15;13.95;;;17.20;48.50;;;;;;4951787;28;93947;-72
2022/04/04 01:31:00;;;;;;;23.02;13.80;;;17.20;48.50;;;;;;4952461;28;92701;-72
2022/04/04 01:33:26;;;;;;;20.70;13.75;;;17.20;48.50;;;;;;4951745;28;92525;-72
2022/04/04 01:35:52;;;;;;;19.80;13.30;;;17.20;48.50;;;;;;4950314;28;93133;-74
2022/04/04 01:38:17;;;;;;;20.20;13.48;;;17.20;48.50;;;;;;4950833;28;93563;-72
2022/04/04 01:40:43;;;;;;;20.90;13.63;;;17.20;48.50;;;;;;4951212;28;93152;-73
2022/04/04 01:43:09;;;;;;;21.42;13.45;;;17.10;48.50;;;;;;4951634;28;92827;-73
2022/04/04 01:48:19;;;;;;;19.60;13.30;;;17.10;48.40;;;;;;4951108;28;95494;-72
2022/04/04 01:50:45;;;;;;;20.27;13.00;;;17.10;48.40;;;;;;4951303;28;95308;-72
2022/04/04 01:53:25;;;;;;;20.35;12.45;;;17.10;48.40;;;;;;4951480;28;94049;-73
2022/04/04 01:55:52;;;;;;;19.33;12.38;;;17.10;48.40;;;;;;4951320;28;92771;-73
2022/04/04 01:58:18;;;;;;;18.02;12.25;;;17.10;48.40;;;;;;4950912;28;92537;-72
2022/04/04 02:00:45;;;;;;;18.10;11.73;;;17.10;48.40;;;;;;4950843;28;93271;-72
2022/04/04 02:03:12;;;;;;;16.88;11.40;;;17.10;48.30;;;;;;4950954;28;93137;-72
2022/04/04 02:05:38;;;;;;;18.13;11.57;;;17.10;48.30;;;;;;4951469;28;91934;-71
2022/04/04 02:08:05;;;;;;;15.70;10.55;;;17.10;48.30;;;;;;4951209;28;94237;-73
2022/04/04 02:10:31;;;;;;;19.85;11.57;;;17.00;48.20;;;;;;4952549;28;92962;-72
2022/04/04 02:12:58;;;;;;;17.58;11.20;;;17.10;48.40;;;;;;4932430;28;96312;-72
2022/04/04 02:15:23;;;;;;;16.10;10.95;;;17.00;48.30;;;;;;4951904;28;92531;-73
2022/04/04 02:17:50;;;;;;;17.48;11.07;;;17.10;48.30;;;;;;4952009;28;93002;-72
2022/04/04 02:20:16;;;;;;;15.55;11.02;;;17.00;48.20;;;;;;4954595;28;95091;-72
2022/04/04 02:22:41;;;;;;;18.17;11.52;;;17.00;48.20;;;;;;4954519;28;92524;-72
2022/04/04 02:25:07;;;;;;;18.33;11.48;;;17.00;48.30;;;;;;4951245;28;92566;-72
2022/04/04 02:27:33;;;;;;;16.75;11.13;;;17.00;48.20;;;;;;4951704;28;93566;-72
2022/04/04 02:29:58;;;;;;;17.73;11.40;;;17.00;48.20;;;;;;4951269;28;92003;-72
2022/04/04 02:32:25;;;;;;;16.35;10.70;;;17.00;48.20;;;;;;4951441;28;92598;-73
2022/04/04 02:34:50;;;;;;;16.58;11.05;;;17.00;48.30;;;;;;4950953;28;92967;-72
2022/04/04 02:37:16;;;;;;;16.35;10.15;;;17.00;48.20;;;;;;4949051;28;96101;-72
2022/04/04 02:39:42;;;;;;;17.30;10.60;;;17.00;48.20;;;;;;4949737;28;95154;-72
2022/04/04 02:42:08;;;;;;;15.80;10.57;;;17.00;48.20;;;;;;4951104;28;92487;-73
2022/04/04 02:44:35;;;;;;;13.85;9.30;;;17.00;48.20;;;;;;4951038;28;93120;-73
2022/04/04 02:47:01;;;;;;;19.95;10.93;;;17.00;48.10;;;;;;4951311;28;93149;-73
2022/04/04 02:49:30;;;;;;;14.50;9.75;;;17.00;48.10;;;;;;4949838;28;93155;-73
2022/04/04 02:51:57;;;;;;;14.10;9.32;;;17.00;48.20;;;;;;4951180;28;92537;-73
2022/04/04 02:54:24;;;;;;;15.88;10.32;;;17.00;48.10;;;;;;4952140;28;92409;-73
2022/04/04 02:56:49;;;;;;;14.55;9.93;;;16.90;48.00;;;;;;4950096;28;93299;-73
2022/04/04 02:59:15;;;;;;;15.25;9.48;;;16.90;48.10;;;;;;4951324;28;92537;-73
2022/04/04 03:01:48;;;;;;;15.73;9.88;;;16.90;48.10;;;;;;4932558;28;95419;-73
2022/04/04 03:04:20;;;;;;;15.38;9.38;;;16.90;48.10;;;;;;4951257;28;93021;-73
2022/04/04 03:06:46;;;;;;;14.33;9.37;;;16.90;48.00;;;;;;4951342;28;93538;-73
2022/04/04 03:09:11;;;;;;;14.93;9.15;;;16.90;48.00;;;;;;4950290;28;92859;-73
2022/04/04 03:11:37;;;;;;;14.02;9.05;;;16.90;48.00;;;;;;4949774;28;92990;-73
2022/04/04 03:14:04;;;;;;;13.18;8.77;;;16.90;48.00;;;;;;4950563;28;92641;-72
2022/04/04 04:18:35;;;;;;;10.13;6.55;;;16.70;47.70;;;;;;5496196;22;94455;-72
2022/04/04 04:21:02;;;;;;;10.00;6.57;;;16.70;47.70;;;;;;4913764;28;92621;-73
2022/04/04 04:23:28;;;;;;;8.65;6.18;;;16.70;47.70;;;;;;4915419;28;95478;-73
2022/04/04 04:25:53;;;;;;;10.50;7.15;;;16.70;47.70;;;;;;4914331;28;96921;-73
2022/04/04 04:28:19;;;;;;;12.90;7.30;;;16.70;47.70;;;;;;4915357;28;93214;-73
2022/04/04 04:30:45;;;;;;;9.05;6.55;;;16.70;47.60;;;;;;4915397;28;92425;-73
2022/04/04 04:33:11;;;;;;;9.43;7.07;;;16.70;47.70;;;;;;4914335;28;93379;-73
2022/04/04 04:35:36;;;;;;;9.73;6.07;;;16.70;47.60;;;;;;4915393;28;92809;-73
2022/04/04 04:38:03;;;;;;;10.10;6.22;;;16.70;47.60;;;;;;4915158;28;92660;-73
2022/04/04 04:40:28;;;;;;;9.00;6.38;;;16.70;47.60;;;;;;4914983;28;92179;-73
2022/04/04 04:42:55;;;;;;;8.13;5.97;;;16.70;47.60;;;;;;4914536;28;92935;-73
2022/04/04 04:45:21;;;;;;;9.63;6.57;;;16.70;47.60;;;;;;4914429;28;92897;-73
2022/04/04 04:47:48;;;;;;;8.73;6.40;;;16.70;47.50;;;;;;4914047;28;95209;-73
2022/04/04 04:50:15;;;;;;;9.85;5.93;;;16.60;47.40;;;;;;4914951;28;92635;-73
2022/04/04 04:52:41;;;;;;;10.80;6.40;;;16.60;48.40;;;;;;4915535;28;93397;-74
2022/04/04 04:55:08;;;;;;;8.68;6.18;;;16.70;47.50;;;;;;4914780;28;92807;-74
2022/04/04 04:57:33;;;;;;;8.52;6.30;;;16.60;47.40;;;;;;4915351;28;92882;-73
2022/04/04 05:00:03;;;;;;;9.60;6.10;;;16.60;47.40;;;;;;4914949;28;92989;-73
2022/04/04 05:02:29;;;;;;;8.18;5.88;;;16.60;47.40;;;;;;4915841;28;93899;-74
2022/04/04 05:04:54;;;;;;;10.02;6.38;;;16.60;47.40;;;;;;4916127;28;93830;-73
2022/04/04 05:07:20;;;;;;;9.25;6.40;;;16.60;47.40;;;;;;4914228;28;92762;-74
2022/04/04 05:09:46;;;;;;;8.15;5.72;;;16.60;47.50;;;;;;4915308;28;92844;-72
2022/04/04 05:12:11;;;;;;;7.97;5.57;;;16.60;47.40;;;;;;4914138;28;95378;-74
2022/04/04 05:14:40;;;;;;;9.48;6.07;;;16.60;47.40;;;;;;4915646;28;94989;-73
2022/04/04 05:17:06;;;;;;;9.30;6.10;;;16.60;47.30;;;;;;4915314;28;93050;-73
2022/04/04 05:19:32;;;;;;;9.45;6.00;;;16.60;47.30;;;;;;4933507;28;92638;-73
2022/04/04 05:21:58;;;;;;;8.57;5.75;;;16.60;47.40;;;;;;4934595;28;93000;-73
2022/04/04 05:24:24;;;;;;;9.50;5.70;;;16.60;47.40;;;;;;4934421;28;95501;-72
2022/04/04 05:26:50;;;;;;;8.15;5.53;;;16.60;47.40;;;;;;4933443;28;92607;-72
2022/04/04 05:29:17;;;;;;;8.45;5.65;;;16.60;47.40;;;;;;4934293;28;91822;-73
2022/04/04 05:31:47;;;;;;;7.72;5.53;;;16.60;47.40;;;;;;4933306;28;93580;-72
2022/04/04 05:34:12;;;;;;;20.83;6.95;;;16.50;47.30;;;;;;4933868;28;92715;-73
2022/04/04 05:36:39;;;;;;;12.98;5.95;;;16.50;47.20;;;;;;4932312;28;95356;-72
2022/04/04 05:39:06;;;;;;;10.13;5.45;;;16.60;47.30;;;;;;4931800;28;92602;-72
2022/04/04 05:41:32;;;;;;;9.73;5.47;;;16.60;47.50;;;;;;4933317;28;93192;-71
2022/04/04 05:43:58;;;;;;;8.60;5.50;;;16.60;47.50;;;;;;4933268;28;92742;-72
2022/04/04 05:46:23;;;;;;;7.72;5.07;;;16.70;47.60;;;;;;4932990;28;93096;-71
2022/04/04 05:48:49;;;;;;;9.93;5.03;;;16.90;47.70;;;;;;4933521;28;93020;-72
2022/04/04 05:51:16;;;;;;;10.05;5.35;;;17.00;47.50;;;;;;4933204;28;93649;-73
2022/04/04 05:53:44;;;;;;;8.18;4.88;;;17.20;47.50;;;;;;4933734;28;93663;-72
2022/04/04 05:56:10;;;;;;;8.73;5.10;;;17.30;47.40;;;;;;4932238;28;93045;-71
2022/04/04 05:58:38;;;;;;;7.90;4.63;;;17.40;47.30;;;;;;4933435;28;93126;-73
2022/04/04 06:01:04;;;;;;;7.88;4.13;;;17.50;47.10;;;;;;4932991;28;96602;-73
2022/04/04 06:03:36;;;;;;;9.20;4.72;;;17.60;47.10;;;;;;4937290;28;95157;-73
2022/04/04 06:06:02;;;;;;;8.77;4.45;;;17.70;46.90;;;;;;4939748;28;92837;-71
2022/04/04 06:08:28;;;;;;;6.40;4.40;;;17.80;46.80;;;;;;4941402;28;93000;-72
2022/04/04 06:10:54;;;;;;;6.10;3.80;;;17.90;46.80;;;;;;4933591;28;92567;-71
2022/04/04 06:13:20;;;;;;;8.32;4.05;;;17.90;46.70;;;;;;4932517;28;92468;-70
2022/04/04 06:15:47;;;;;;;6.68;3.92;;;18.00;46.80;;;;;;4932021;28;92554;-68
2022/04/04 06:18:13;;;;;;;6.38;4.00;;;18.10;46.70;;;;;;4932533;28;92302;-70
2022/04/04 06:20:40;;;;;;;9.90;3.90;;;18.10;47.20;;;;;;4930854;28;92968;-69
2022/04/04 06:23:06;;;;;;;6.22;3.55;;;18.20;47.30;;;;;;4930961;28;92754;-69
2022/04/04 06:25:32;;;;;;;7.53;4.03;;;18.30;47.40;;;;;;4929530;28;95071;-70
2022/04/04 06:28:00;;;;;;;6.45;3.85;;;18.30;47.40;;;;;;4932216;28;92977;-69
2022/04/04 06:30:26;;;;;;;7.88;3.70;;;18.40;47.50;;;;;;4929833;28;93854;-71
2022/04/04 06:32:52;;;;;;;6.95;3.30;;;18.40;47.50;;;;;;4929152;28;93148;-70
2022/04/04 06:35:19;;;;;;;6.57;3.50;;;18.50;47.50;;;;;;4931584;28;92533;-71
2022/04/04 06:37:46;;;;;;;5.63;3.35;;;18.50;47.50;;;;;;4932604;28;92703;-72
2022/04/04 06:40:14;;;;;;;5.68;3.15;;;18.50;47.50;;;;;;4931649;28;92551;-70
2022/04/04 06:42:42;;;;;;;5.90;3.30;;;18.60;47.40;;;;;;4932255;28;96740;-70
2022/04/04 06:45:10;;;;;;;6.00;3.17;;;18.60;47.30;;;;;;4932043;28;92773;-70
2022/04/04 06:47:37;;;;;;;7.00;3.53;;;18.60;47.30;;;;;;4930347;28;92744;-69
2022/04/04 06:50:05;;;;;;;5.57;3.33;;;18.70;47.30;;;;;;4930695;28;95404;-71
2022/04/04 06:52:31;;;;;;;5.55;3.30;;;18.70;47.40;;;;;;4933420;28;96541;-70
2022/04/04 06:54:56;;;;;;;5.32;3.45;;;18.70;47.40;;;;;;4934419;28;92802;-71
2022/04/04 06:57:23;;;;;;;8.98;3.38;;;18.60;47.40;;;;;;4935287;28;92559;-71
2022/04/04 06:59:49;;;;;;;6.07;3.08;;;18.70;47.60;;;;;;4934088;28;93001;-72
2022/04/04 07:02:14;;;;;;;5.32;2.78;;;18.60;47.80;;;;;;4933732;28;93126;-70
2022/04/04 07:04:43;;;;;;;8.00;3.38;;;18.70;47.60;;;;;;4917269;28;92603;-70
2022/04/04 07:07:10;;;;;;;5.72;2.92;;;18.70;47.80;;;;;;4935152;28;92153;-71
2022/04/04 07:09:35;;;;;;;6.90;3.40;;;18.70;47.60;;;;;;4933524;28;94325;-70
2022/04/04 07:12:02;;;;;;;5.55;2.88;;;18.70;47.40;;;;;;4934247;28;92793;-70
2022/04/04 07:14:29;;;;;;;4.50;2.95;;;18.70;47.40;;;;;;4932825;28;95337;-72
2022/04/04 07:16:55;;;;;;;4.47;2.85;;;18.70;47.30;;;;;;4934974;28;92994;-73
2022/04/04 07:19:24;;;;;;;6.40;3.17;;;18.60;47.20;;;;;;4936034;28;93366;-72
2022/04/04 07:21:51;;;;;;;4.90;3.05;;;18.60;47.00;;;;;;4937093;28;92431;-73
2022/04/04 07:24:16;;;;;;;5.03;2.78;;;18.60;47.10;;;;;;4934629;28;92716;-72
2022/04/04 07:26:42;;;;;;;5.95;3.00;;;18.60;47.10;;;;;;4935807;28;92980;-72
2022/04/04 07:29:08;;;;;;;6.07;2.83;;;18.40;47.10;;;;;;4936085;28;93235;-71
2022/04/04 07:31:33;;;;;;;4.70;2.67;;;18.40;47.20;;;;;;4935550;28;93633;-72
2022/04/04 07:33:59;;;;;;;4.45;2.70;;;18.40;47.30;;;;;;4935938;28;92561;-72
2022/04/04 07:36:25;;;;;;;4.75;3.03;;;18.30;47.20;;;;;;4935467;28;92552;-72
2022/04/04 07:38:51;;;;;;;4.65;2.90;;;18.30;47.20;;;;;;4932702;28;96186;-75
2022/04/04 07:41:18;;;;;;;4.00;2.70;;;18.20;47.20;;;;;;4933596;28;95668;-73
2022/04/04 07:43:44;;;;;;;4.30;2.85;;;18.20;47.20;;;;;;4934895;28;93139;-72
2022/04/04 07:46:12;;;;;;;4.32;2.60;;;18.20;47.30;;;;;;4935150;28;92877;-73
2022/04/04 07:48:46;;;;;;;5.10;2.85;;;18.10;47.30;;;;;;4936932;28;92542;-72
2022/04/04 07:51:11;;;;;;;5.43;2.95;;;18.10;47.30;;;;;;4939750;28;93046;-73
2022/04/04 07:53:38;;;;;;;4.82;2.80;;;18.00;47.30;;;;;;4944095;28;92437;-73
2022/04/04 07:56:04;;;;;;;5.45;2.97;;;18.00;47.30;;;;;;4944474;28;92210;-70
2022/04/04 07:58:31;;;;;;;4.03;2.53;;;18.00;47.30;;;;;;4935257;28;94531;-72
2022/04/04 08:00:57;;;;;;;4.18;2.60;;;18.00;47.30;;;;;;4933981;28;105024;-72
2022/04/04 08:03:23;;;;;;;5.25;3.03;;;17.90;47.30;;;;;;4933201;28;94988;-72
2022/04/04 08:05:50;;;;;;;4.20;2.60;;;17.90;47.40;;;;;;4935145;28;93061;-72
2022/04/04 08:08:16;;;;;;;4.43;2.80;;;17.80;47.40;;;;;;4934484;28;93092;-72
2022/04/04 08:10:42;;;;;;;4.25;2.45;;;17.80;47.40;;;;;;4933617;28;92775;-71
2022/04/04 08:13:07;;;;;;;4.65;2.65;;;17.80;47.50;;;;;;4935683;28;92522;-71
2022/04/04 08:15:33;;;;;;;4.75;2.63;;;17.80;47.50;;;;;;4935781;28;92780;-71
2022/04/04 08:17:59;;;;;;;5.45;2.40;;;17.70;47.60;;;;;;4934970;28;93272;-72
2022/04/04 08:20:26;;;;;;;4.63;2.50;;;17.70;47.60;;;;;;4935222;28;92226;-72
2022/04/04 08:22:52;;;;;;;6.15;2.60;;;17.60;47.60;;;;;;4935428;28;92783;-72
2022/04/04 08:25:17;;;;;;;6.05;2.80;;;17.60;47.70;;;;;;4935185;28;93579;-72
2022/04/04 08:27:44;;;;;;;5.22;2.67;;;17.60;47.70;;;;;;4934149;28;95258;-72
2022/04/04 08:30:12;;;;;;;4.80;2.63;;;17.60;47.80;;;;;;4935958;28;93946;-72
2022/04/04 08:32:39;;;;;;;4.68;2.40;;;17.60;47.90;;;;;;4935253;28;92738;-72
2022/04/04 08:35:07;;;;;;;5.28;2.58;;;17.50;47.90;;;;;;4935130;28;92464;-73
2022/04/04 08:37:33;;;;;;;5.20;2.72;;;17.50;48.00;;;;;;4916245;28;92946;-73
2022/04/04 08:39:59;;;;;;;4.07;2.45;;;17.50;48.00;;;;;;4934689;28;93095;-73
2022/04/04 08:42:27;;;;;;;6.00;2.40;;;17.40;48.00;;;;;;4934466;28;92399;-73
2022/04/04 08:44:55;;;;;;;6.28;2.70;;;17.40;48.00;;;;;;4935158;28;92164;-72
2022/04/04 08:47:22;;;;;;;5.03;2.80;;;17.40;48.10;;;;;;4933823;28;92962;-73
2022/04/04 08:49:49;;;;;;;5.05;2.22;;;17.30;48.20;;;;;;4935112;28;92857;-73
2022/04/04 08:52:16;;;;;;;3.38;2.25;;;17.30;48.20;;;;;;4914957;28;95457;-73
2022/04/04 08:54:42;;;;;;;4.65;2.35;;;17.30;48.20;;;;;;4917517;28;92581;-72
2022/04/04 08:57:07;;;;;;;4.43;2.22;;;17.30;48.30;;;;;;4933488;28;93738;-73
2022/04/04 08:59:33;;;;;;;4.30;2.17;;;17.20;48.30;;;;;;4935320;28;99316;-72
2022/04/04 09:01:59;;;;;;;4.03;2.22;;;17.20;48.40;;;;;;4935519;28;93033;-72
2022/04/04 09:04:25;;;;;;;6.38;2.42;;;17.20;48.40;;;;;;4935649;28;92521;-73
2022/04/04 09:06:53;;;;;;;4.05;2.22;;;17.20;48.40;;;;;;4933873;28;95403;-72
2022/04/04 09:09:23;;;;;;;3.15;1.98;;;17.10;48.30;;;;;;4934265;28;93865;-73
2022/04/04 09:12:08;;;;;;;3.40;1.88;;;17.10;48.40;;;;;;4933299;28;93031;-72
2022/04/04 09:14:46;;;;;;;5.55;2.53;;;17.10;48.40;;;;;;4914994;28;92899;-73
2022/04/04 09:17:13;;;;;;;3.17;1.92;;;17.00;48.40;;;;;;4932221;28;95916;-73
2022/04/04 09:19:38;;;;;;;3.42;1.90;;;17.10;48.50;;;;;;4932326;28;96376;-73
2022/04/04 09:22:10;;;;;;;3.78;1.90;;;17.00;48.50;;;;;;4933263;28;92921;-74
2022/04/04 09:24:59;;;;;;;3.10;2.08;;;17.10;48.60;;;;;;4933227;28;92563;-73
2022/04/04 09:27:34;;;;;;;4.10;1.98;;;17.00;48.50;;;;;;4932341;28;94198;-73
2022/04/04 09:30:01;;;;;;;4.18;1.90;;;17.00;49.60;;;;;;4933256;28;96359;-72
2022/04/04 09:32:38;;;;;;;3.67;1.80;;;17.00;48.60;;;;;;4935067;28;92545;-73
2022/04/04 09:35:09;;;;;;;3.38;2.17;;;17.00;48.60;;;;;;4937416;28;92252;-73
2022/04/04 09:37:36;;;;;;;3.90;1.92;;;17.00;48.70;;;;;;4937266;28;92978;-73
2022/04/04 09:40:08;;;;;;;3.10;1.70;;;17.00;48.80;;;;;;4936512;28;93900;-72
2022/04/04 09:42:33;;;;;;;4.63;1.70;;;16.90;48.70;;;;;;4931885;28;95260;-72
2022/04/04 09:45:04;;;;;;;3.17;1.70;;;16.90;48.70;;;;;;4932738;28;93919;-72
2022/04/04 09:47:50;;;;;;;3.50;1.63;;;16.90;48.70;;;;;;4932497;28;92666;-71
2022/04/04 09:50:41;;;;;;;2.85;1.77;;;16.90;48.70;;;;;;4929777;28;94414;-73
2022/04/04 09:53:30;;;;;;;4.80;2.05;;;16.90;48.70;;;;;;4932050;28;92590;-73
2022/04/04 09:55:57;;;;;;;3.95;2.20;;;16.80;48.70;;;;;;4923516;28;92634;-71
2022/04/04 09:58:30;;;;;;;5.15;1.80;;;16.80;48.80;;;;;;4932434;28;92890;-73
2022/04/04 10:00:58;;;;;;;5.38;2.05;;;16.80;48.70;;;;;;4932636;28;92853;-72
2022/04/04 10:03:25;;;;;;;3.75;1.98;;;16.80;48.70;;;;;;4931871;28;92939;-73
2022/04/04 10:06:01;;;;;;;2.72;1.65;;;16.80;48.80;;;;;;4932756;28;92559;-72
2022/04/04 10:08:28;;;;;;;4.38;1.90;;;16.80;48.70;;;;;;4930842;28;95515;-72
2022/04/04 10:10:54;;;;;;;3.03;1.70;;;16.80;48.70;;;;;;4932474;28;95780;-72
2022/04/04 10:13:20;;;;;;;3.08;1.40;;;16.80;48.70;;;;;;4931574;28;92569;-71
2022/04/04 10:15:46;;;;;;;2.42;1.60;;;16.80;48.70;;;;;;4931562;28;93028;-72
2022/04/04 10:18:14;;;;;;;3.47;1.63;;;16.80;49.80;;;;;;4931685;28;93141;-72
2022/04/04 10:20:41;;;;;;;5.00;1.63;;;16.80;48.80;;;;;;4931611;28;93095;-72
2022/04/04 10:23:12;;;;;;;3.22;1.65;;;16.80;48.70;;;;;;4931440;28;93216;-73
2022/04/04 10:25:38;;;;;;;2.88;1.63;;;16.80;48.70;;;;;;4934936;28;91751;-71
2022/04/04 10:28:04;;;;;;;3.63;1.40;;;16.80;48.80;;;;;;4935330;28;93195;-73
2022/04/04 10:30:40;;;;;;;2.83;1.45;;;16.80;48.80;;;;;;4916136;28;92601;-73
2022/04/04 10:33:23;;;;;;;2.75;1.40;;;16.80;48.70;;;;;;4933259;28;95028;-73
2022/04/04 10:36:04;;;;;;;2.83;1.43;;;16.80;48.70;;;;;;4934399;28;92826;-72
2022/04/04 10:38:38;;;;;;;3.40;1.58;;;16.70;48.80;;;;;;4933840;28;94282;-72
2022/04/04 10:41:07;;;;;;;2.70;1.35;;;16.70;48.80;;;;;;4934931;28;93288;-72
2022/04/04 10:43:35;;;;;;;3.28;1.60;;;16.70;48.80;;;;;;4934257;28;92615;-72
2022/04/04 10:46:04;;;;;;;2.78;1.35;;;16.70;48.80;;;;;;4935483;28;92977;-73
2022/04/04 10:48:35;;;;;;;3.05;1.40;;;16.70;48.80;;;;;;4933837;28;93412;-73
2022/04/04 10:51:30;;;;;;;2.08;1.30;;;16.70;48.80;;;;;;4916833;28;93039;-71
2022/04/04 10:53:57;;;;;;;2.45;1.40;;;16.70;48.80;;;;;;4934020;28;92701;-72
2022/04/04 10:56:24;;;;;;;2.50;1.33;;;16.70;48.90;;;;;;4934583;28;92985;-73
2022/04/04 10:58:52;;;;;;;3.03;1.60;;;16.70;48.90;;;;;;4932690;28;96532;-74
2022/04/04 11:01:20;;;;;;;2.85;1.38;;;16.70;49.00;;;;;;4933922;28;96191;-73
2022/04/04 11:03:52;;;;;;;2.15;1.30;;;16.70;49.00;;;;;;4934007;28;92986;-73
2022/04/04 11:09:14;;;;;;;1.80;1.20;;;16.70;49.00;;;;;;4933053;28;93061;-72
2022/04/04 11:11:41;;;;;;;2.15;1.42;;;16.70;49.10;;;;;;4915802;28;95430;-71
2022/04/04 11:14:08;;;;;;;2.90;1.50;;;16.60;49.10;;;;;;4934680;28;93726;-72
2022/04/04 11:17:25;;;;;;;2.85;1.40;;;16.60;49.10;;;;;;4937697;28;91871;-72
2022/04/04 11:19:57;;;;;;;2.45;1.42;;;16.60;49.10;;;;;;4937148;28;94194;-72
2022/04/04 11:22:25;;;;;;;2.50;1.58;;;16.60;49.20;;;;;;4935499;28;93282;-72
2022/04/04 11:25:03;;;;;;;2.30;1.25;;;16.60;49.20;;;;;;4932747;28;95481;-72
2022/04/04 11:27:30;;;;;;;2.13;1.42;;;16.60;49.20;;;;;;4933711;28;92908;-72
2022/04/04 11:29:58;;;;;;;1.88;1.17;;;16.60;49.20;;;;;;4916167;28;94417;-71
2022/04/04 11:32:28;;;;;;;2.53;1.35;;;16.60;49.20;;;;;;4933180;28;92762;-72
2022/04/04 11:34:57;;;;;;;2.03;1.20;;;16.60;49.30;;;;;;4933193;28;92989;-72
2022/04/04 11:37:24;;;;;;;2.38;1.15;;;16.60;49.30;;;;;;4931960;28;93086;-72
2022/04/04 11:39:53;;;;;;;2.83;1.30;;;16.60;50.40;;;;;;4916127;28;93723;-73
2022/04/04 11:42:22;;;;;;;1.70;1.10;;;16.60;49.30;;;;;;4934714;28;94046;-72
2022/04/04 11:44:48;;;;;;;3.03;1.08;;;16.50;49.30;;;;;;4933607;28;93011;-72
2022/04/04 11:47:16;;;;;;;1.70;1.00;;;16.50;49.30;;;;;;4933513;28;93133;-73
2022/04/04 11:49:43;;;;;;;1.90;1.10;;;16.60;49.40;;;;;;4932010;28;95977;-73
2022/04/04 11:52:14;;;;;;;2.20;1.17;;;16.50;49.30;;;;;;4933053;28;93853;-73
2022/04/04 11:54:44;;;;;;;1.85;1.10;;;16.50;49.40;;;;;;4933960;28;92604;-73
2022/04/04 11:57:11;;;;;;;1.88;1.13;;;16.50;49.40;;;;;;4933495;28;92491;-73
2022/04/04 11:59:41;;;;;;;2.95;1.35;;;16.50;49.40;;;;;;4933044;28;93412;-73
2022/04/04 12:02:09;;;;;;;1.45;1.05;;;16.50;49.50;;;;;;4933233;28;96452;-73
2022/04/04 12:04:39;;;;;;;2.65;1.20;;;16.50;49.50;;;;;;4932577;28;92767;-73
2022/04/04 12:07:06;;;;;;;2.75;1.20;;;16.50;49.50;;;;;;4933050;28;93359;-73
2022/04/04 12:09:34;;;;;;;2.47;1.00;;;16.50;49.50;;;;;;4932883;28;93486;-73
2022/04/04 12:12:10;;;;;;;1.88;0.93;;;16.50;49.50;;;;;;4932662;28;92932;-71
2022/04/04 12:14:41;;;;;;;2.58;1.17;;;16.50;49.50;;;;;;4913630;28;94922;-72
2022/04/04 12:17:08;;;;;;;1.73;0.90;;;16.50;49.60;;;;;;4932676;28;92802;-72
2022/04/04 12:19:48;;;;;;;2.42;1.27;;;16.50;49.60;;;;;;4932287;28;92973;-72
2022/04/04 12:25:03;;;;;;;1.83;1.08;;;16.50;49.70;;;;;;4933195;28;92630;-73
2022/04/04 12:27:29;;;;;;;2.28;0.98;;;16.50;49.70;;;;;;4932712;28;95006;-73
2022/04/04 12:30:00;;;;;;;2.90;1.30;;;16.50;49.70;;;;;;4932824;28;94044;-72
2022/04/04 12:32:26;;;;;;;2.40;1.10;;;16.50;49.70;;;;;;4932823;28;93858;-72
2022/04/04 12:34:57;;;;;;;1.30;0.70;;;16.40;49.70;;;;;;4932958;28;92656;-72
2022/04/04 12:37:33;;;;;;;2.55;1.00;;;16.50;49.90;;;;;;4932549;28;92965;-72
2022/04/04 12:40:22;;;;;;;1.90;0.93;;;16.50;49.80;;;;;;4931409;28;96893;-70
2022/04/04 12:42:50;;;;;;;2.90;1.27;;;16.50;49.70;;;;;;4933349;28;96607;-73
2022/04/04 12:45:18;;;;;;;1.77;0.90;;;16.50;49.90;;;;;;4932813;28;92925;-73
2022/04/04 12:47:54;;;;;;;2.50;1.00;;;16.50;49.90;;;;;;4931887;28;92522;-72
2022/04/04 12:50:21;;;;;;;1.52;0.80;;;16.50;49.80;;;;;;4932236;28;93172;-72
2022/04/04 12:53:01;;;;;;;1.85;0.90;;;16.40;49.80;;;;;;4932696;28;92825;-73
2022/04/04 12:55:28;;;;;;;1.55;0.88;;;16.50;49.90;;;;;;4907138;28;93149;-73
2022/04/04 12:57:55;;;;;;;2.42;1.13;;;16.40;49.90;;;;;;4934949;28;92858;-73
2022/04/04 13:00:35;;;;;;;1.65;1.00;;;16.50;50.00;;;;;;4938440;28;93458;-73
2022/04/04 13:03:23;;;;;;;1.65;0.90;;;16.40;49.90;;;;;;4933966;28;93262;-72
2022/04/04 13:05:53;;;;;;;1.25;0.80;;;16.40;49.90;;;;;;4932264;28;95438;-72
2022/04/04 13:08:30;;;;;;;2.15;1.00;;;16.40;50.00;;;;;;4930688;28;93023;-73
2022/04/04 13:11:13;;;;;;;1.00;0.80;;;16.40;50.00;;;;;;4931837;28;93019;-71
2022/04/04 13:14:08;;;;;;;1.63;0.90;;;16.40;50.00;;;;;;4932675;28;93108;-74
2022/04/04 13:16:41;;;;;;;1.80;0.82;;;16.40;50.00;;;;;;4932659;28;93064;-72
2022/04/04 13:19:09;;;;;;;1.50;0.82;;;16.40;50.10;;;;;;4931815;28;92871;-74
2022/04/04 13:21:39;;;;;;;1.73;1.00;;;16.40;50.10;;;;;;4931349;28;93449;-73
2022/04/04 13:24:06;;;;;;;1.33;0.70;;;16.40;50.10;;;;;;4931944;28;92382;-73
2022/04/04 13:26:33;;;;;;;1.60;0.95;;;16.40;50.10;;;;;;4932534;28;92565;-73
2022/04/04 13:28:59;;;;;;;1.33;0.90;;;16.40;50.20;;;;;;4931914;28;92591;-72
2022/04/04 13:31:26;;;;;;;1.55;0.80;;;16.40;50.20;;;;;;4929263;28;95399;-73
2022/04/04 13:33:54;;;;;;;1.23;0.70;;;16.40;50.20;;;;;;4931393;28;97029;-72
2022/04/04 13:36:21;;;;;;;1.00;0.70;;;16.40;50.70;;;;;;4931366;28;92726;-72
2022/04/04 13:38:48;;;;;;;1.98;0.90;;;16.40;50.20;;;;;;4931934;28;93304;-72
2022/04/04 13:41:16;;;;;;;0.85;0.60;;;16.40;50.30;;;;;;4931899;28;94561;-72
2022/04/04 13:43:42;;;;;;;1.00;0.70;;;16.40;50.30;;;;;;4930551;28;94356;-72
2022/04/04 13:46:08;;;;;;;1.15;0.82;;;16.40;50.30;;;;;;4931279;28;92564;-72
2022/04/04 13:48:34;;;;;;;1.17;0.73;;;16.40;50.30;;;;;;4931257;28;91835;-72
2022/04/04 13:51:00;;;;;;;0.93;0.60;;;16.40;51.30;;;;;;4930918;28;93520;-72
2022/04/04 13:53:27;;;;;;;1.40;0.70;;;16.40;50.30;;;;;;4931573;28;93489;-72
2022/04/04 13:55:52;;;;;;;1.45;0.75;;;16.40;50.30;;;;;;4931012;28;94860;-72